createdAt,value
2023-04-26T00:01:30.885Z,6.45
2023-04-26T00:03:57.724Z,6.90
2023-04-26T00:06:24.501Z,6.22
2023-04-26T00:08:51.637Z,4.95
2023-04-26T00:11:18.455Z,6.38
2023-04-26T00:13:44.993Z,6.68
2023-04-26T00:16:13.400Z,6.70
2023-04-26T00:18:40.104Z,6.30
2023-04-26T00:21:07.087Z,5.72
2023-04-26T00:23:33.651Z,5.88
2023-04-26T00:26:00.213Z,7.18
2023-04-26T00:28:26.804Z,5.82
2023-04-26T00:30:53.370Z,8.30
2023-04-26T00:33:19.909Z,5.78
2023-04-26T00:35:46.495Z,5.20
2023-04-26T00:38:13.000Z,6.40
2023-04-26T00:40:39.638Z,5.10
2023-04-26T00:43:06.673Z,6.32
2023-04-26T00:45:34.372Z,5.82
2023-04-26T00:48:02.093Z,6.35
2023-04-26T00:50:30.037Z,5.88
2023-04-26T00:52:59.061Z,6.50
2023-04-26T00:55:27.358Z,5.85
2023-04-26T00:57:54.000Z,6.28
2023-04-26T01:00:21.494Z,5.82
2023-04-26T01:02:48.464Z,7.25
2023-04-26T01:05:15.120Z,6.45
2023-04-26T01:07:41.727Z,6.30
2023-04-26T01:10:10.113Z,6.18
2023-04-26T01:12:38.953Z,6.75
2023-04-26T01:15:05.985Z,6.85
2023-04-26T01:17:32.709Z,5.40
2023-04-26T01:19:59.293Z,5.35
2023-04-26T01:22:25.947Z,6.38
2023-04-26T01:24:55.056Z,5.53
2023-04-26T01:27:21.691Z,6.50
2023-04-26T01:29:48.274Z,5.25
2023-04-26T01:32:14.847Z,5.57
2023-04-26T01:34:41.439Z,6.32
2023-04-26T01:37:08.093Z,6.88
2023-04-26T01:39:36.643Z,6.15
2023-04-26T01:42:04.632Z,6.97
2023-04-26T01:44:31.453Z,5.72
2023-04-26T01:46:57.985Z,5.68
2023-04-26T01:49:24.635Z,6.57
2023-04-26T01:51:51.708Z,6.47
2023-04-26T01:54:18.217Z,6.90
2023-04-26T01:56:44.779Z,7.00
2023-04-26T01:59:11.385Z,6.22
2023-04-26T02:01:37.954Z,5.85
2023-04-26T02:04:06.329Z,6.68
2023-04-26T02:06:33.048Z,6.35
2023-04-26T02:08:59.577Z,5.63
2023-04-26T02:11:27.043Z,6.53
2023-04-26T02:13:53.941Z,6.30
2023-04-26T02:16:21.452Z,5.88
2023-04-26T02:18:49.780Z,5.55
2023-04-26T02:21:20.606Z,6.78
2023-04-26T02:23:47.198Z,6.35
2023-04-26T02:26:14.372Z,7.43
2023-04-26T02:28:42.102Z,6.30
2023-04-26T02:31:08.970Z,6.40
2023-04-26T02:33:35.994Z,7.15
2023-04-26T02:36:04.964Z,6.18
2023-04-26T02:38:33.942Z,6.57
2023-04-26T02:41:02.028Z,7.40
2023-04-26T02:43:28.679Z,7.38
2023-04-26T02:45:55.366Z,8.07
2023-04-26T02:48:21.935Z,6.53
2023-04-26T02:50:48.561Z,7.63
2023-04-26T02:53:15.955Z,5.80
2023-04-26T02:55:43.527Z,7.50
2023-04-26T02:58:10.082Z,7.55
2023-04-26T03:00:36.839Z,6.68
2023-04-26T03:03:03.665Z,7.03
2023-04-26T03:05:30.390Z,7.75
2023-04-26T03:07:56.928Z,7.75
2023-04-26T03:10:23.524Z,6.80
2023-04-26T03:12:50.240Z,6.95
2023-04-26T03:15:16.878Z,8.80
2023-04-26T03:17:43.597Z,7.78
2023-04-26T03:20:11.143Z,7.85
2023-04-26T03:22:37.769Z,7.05
2023-04-26T03:25:05.461Z,7.72
2023-04-26T03:27:31.976Z,7.18
2023-04-26T03:29:58.600Z,8.98
2023-04-26T03:32:25.383Z,7.10
2023-04-26T03:34:52.048Z,6.10
2023-04-26T03:37:18.546Z,8.00
2023-04-26T03:39:45.130Z,7.47
2023-04-26T03:42:11.646Z,7.32
2023-04-26T03:44:38.163Z,8.77
2023-04-26T03:47:05.564Z,7.68
2023-04-26T03:49:32.263Z,7.03
2023-04-26T03:51:58.855Z,8.15
2023-04-26T03:54:25.420Z,8.40
2023-04-26T03:56:51.947Z,6.88
2023-04-26T03:59:18.478Z,7.43
2023-04-26T04:01:45.021Z,7.63
2023-04-26T04:04:11.851Z,8.05
2023-04-26T04:06:38.659Z,6.93
2023-04-26T04:09:08.221Z,6.80
2023-04-26T04:11:34.887Z,7.28
2023-04-26T04:14:02.679Z,6.45
2023-04-26T04:16:29.286Z,7.28
2023-04-26T04:18:55.958Z,6.38
2023-04-26T04:21:22.475Z,6.85
2023-04-26T04:23:58.092Z,8.15
2023-04-26T04:26:24.624Z,6.32
2023-04-26T04:28:52.082Z,7.45
2023-04-26T04:31:18.940Z,6.60
2023-04-26T04:33:45.518Z,6.97
2023-04-26T04:36:12.822Z,6.47
2023-04-26T04:38:39.710Z,6.78
2023-04-26T04:41:06.240Z,5.03
2023-04-26T04:43:33.024Z,5.55
2023-04-26T04:45:59.581Z,5.22
2023-04-26T04:48:26.222Z,5.57
2023-04-26T04:50:52.775Z,6.13
2023-04-26T04:53:56.832Z,5.70
2023-04-26T04:56:23.701Z,6.38
2023-04-26T04:58:50.482Z,5.45
2023-04-26T05:01:17.231Z,5.20
2023-04-26T05:03:43.976Z,5.95
2023-04-26T05:06:10.726Z,5.38
2023-04-26T05:08:37.299Z,5.15
2023-04-26T05:11:03.839Z,6.43
2023-04-26T05:13:30.397Z,6.32
2023-04-26T05:15:57.048Z,5.80
2023-04-26T05:18:23.613Z,5.65
2023-04-26T05:20:50.544Z,5.25
2023-04-26T05:23:17.188Z,5.20
2023-04-26T05:25:43.720Z,5.75
2023-04-26T05:28:12.714Z,5.70
2023-04-26T05:30:39.657Z,5.50
2023-04-26T05:33:06.832Z,5.13
2023-04-26T05:35:33.717Z,6.20
2023-04-26T05:38:00.341Z,5.45
2023-04-26T05:40:26.933Z,6.18
2023-04-26T05:42:53.522Z,5.88
2023-04-26T05:45:20.133Z,5.80
2023-04-26T05:47:47.657Z,7.13
2023-04-26T05:50:14.273Z,6.35
2023-04-26T05:52:40.937Z,6.18
2023-04-26T05:55:08.058Z,5.82
2023-04-26T05:57:34.728Z,6.05
2023-04-26T06:00:01.479Z,6.13
2023-04-26T06:02:28.155Z,5.70
2023-04-26T06:04:55.024Z,5.70
2023-04-26T06:07:21.791Z,6.72
2023-04-26T06:09:48.636Z,7.50
2023-04-26T06:12:15.163Z,8.00
2023-04-26T06:14:41.762Z,6.95
2023-04-26T06:17:08.931Z,7.90
2023-04-26T06:19:35.776Z,7.10
2023-04-26T06:22:02.342Z,6.50
2023-04-26T06:24:28.849Z,6.88
2023-04-26T06:26:55.445Z,7.13
2023-04-26T06:29:22.002Z,6.90
2023-04-26T06:31:48.647Z,6.53
2023-04-26T06:34:15.203Z,7.15
2023-04-26T06:36:41.865Z,5.97
2023-04-26T06:39:08.387Z,6.95
2023-04-26T06:41:34.935Z,8.07
2023-04-26T06:44:01.537Z,6.75
2023-04-26T06:46:28.149Z,5.88
2023-04-26T06:48:57.943Z,6.75
2023-04-26T06:51:24.706Z,6.63
2023-04-26T06:53:52.470Z,6.78
2023-04-26T06:56:19.306Z,7.20
2023-04-26T06:59:05.763Z,6.40
2023-04-26T07:04:07.363Z,8.27
2023-04-26T07:06:34.740Z,10.80
2023-04-26T07:09:02.847Z,9.10
2023-04-26T07:11:29.776Z,7.97
2023-04-26T07:13:57.091Z,7.38
2023-04-26T07:16:23.927Z,6.93
2023-04-26T07:18:58.523Z,6.88
2023-04-26T07:21:26.751Z,8.30
2023-04-26T07:23:55.615Z,7.43
2023-04-26T07:26:23.463Z,7.00
2023-04-26T07:28:53.343Z,6.57
2023-04-26T07:31:20.583Z,7.25
2023-04-26T07:33:47.320Z,7.68
2023-04-26T07:36:13.964Z,7.10
2023-04-26T07:38:40.538Z,7.07
2023-04-26T07:41:07.260Z,7.45
2023-04-26T07:43:33.807Z,7.38
2023-04-26T07:46:03.182Z,7.05
2023-04-26T07:48:29.898Z,6.32
2023-04-26T07:50:56.630Z,7.38
2023-04-26T07:53:23.295Z,7.68
2023-04-26T07:55:52.955Z,7.13
2023-04-26T07:58:19.824Z,6.82
2023-04-26T08:00:46.344Z,7.90
2023-04-26T08:03:16.748Z,9.55
2023-04-26T08:05:43.898Z,7.93
2023-04-26T08:08:10.957Z,8.93
2023-04-26T08:10:40.622Z,8.10
2023-04-26T08:13:19.199Z,6.68
2023-04-26T08:15:45.791Z,7.18
2023-04-26T08:18:12.410Z,7.63
2023-04-26T08:20:57.405Z,7.07
2023-04-26T08:23:23.997Z,6.30
2023-04-26T08:25:50.613Z,6.60
2023-04-26T08:28:17.243Z,7.85
2023-04-26T08:30:44.010Z,6.38
2023-04-26T08:33:10.789Z,7.20
2023-04-26T08:35:37.451Z,7.47
2023-04-26T08:38:04.048Z,7.57
2023-04-26T08:40:31.611Z,6.28
2023-04-26T08:42:58.251Z,6.13
2023-04-26T08:45:25.059Z,6.78
2023-04-26T08:47:56.972Z,7.00
2023-04-26T08:50:24.263Z,7.30
2023-04-26T08:52:52.167Z,7.28
2023-04-26T08:55:22.514Z,9.13
2023-04-26T08:57:50.747Z,8.50
2023-04-26T09:00:18.844Z,8.90
2023-04-26T09:02:51.454Z,8.95
2023-04-26T09:05:23.554Z,8.30
2023-04-26T09:07:51.260Z,9.38
2023-04-26T09:10:22.094Z,7.28
2023-04-26T09:12:55.991Z,8.23
2023-04-26T09:15:25.018Z,9.60
2023-04-26T09:17:52.385Z,8.80
2023-04-26T09:20:26.414Z,9.05
2023-04-26T09:23:09.789Z,9.18
2023-04-26T09:25:36.656Z,9.23
2023-04-26T09:28:04.679Z,8.55
2023-04-26T09:30:31.428Z,8.35
2023-04-26T09:33:07.008Z,8.10
2023-04-26T09:35:41.861Z,8.48
2023-04-26T09:38:13.544Z,8.55
2023-04-26T09:40:46.115Z,8.43
2023-04-26T09:43:14.256Z,8.85
2023-04-26T09:45:53.985Z,8.68
2023-04-26T09:48:32.065Z,9.10
2023-04-26T09:51:04.648Z,9.38
2023-04-26T09:53:37.241Z,8.82
2023-04-26T09:56:08.614Z,8.32
2023-04-26T09:58:38.645Z,9.25
2023-04-26T10:01:07.116Z,9.60
2023-04-26T10:03:37.032Z,9.07
2023-04-26T10:06:04.610Z,9.50
2023-04-26T10:08:32.979Z,9.45
2023-04-26T10:11:02.250Z,9.90
2023-04-26T10:13:29.165Z,9.13
2023-04-26T10:15:56.575Z,9.15
2023-04-26T10:18:23.134Z,8.55
2023-04-26T10:20:53.052Z,9.00
2023-04-26T10:23:27.359Z,8.63
2023-04-26T10:25:55.098Z,8.57
2023-04-26T10:28:44.752Z,7.20
2023-04-26T10:31:11.795Z,8.25
2023-04-26T10:33:38.369Z,7.57
2023-04-26T10:36:08.146Z,7.55
2023-04-26T10:38:37.161Z,9.07
2023-04-26T10:41:48.839Z,8.75
2023-04-26T10:44:40.062Z,8.95
2023-04-26T10:47:20.375Z,7.65
2023-04-26T10:49:48.294Z,7.95
2023-04-26T10:52:20.461Z,7.40
2023-04-26T10:54:57.441Z,6.65
2023-04-26T10:57:47.891Z,8.52
2023-04-26T11:00:32.319Z,8.90
2023-04-26T11:03:03.981Z,7.85
2023-04-26T11:05:51.032Z,8.55
2023-04-26T11:08:20.558Z,8.18
2023-04-26T11:10:53.004Z,6.95
2023-04-26T11:13:20.423Z,7.57
2023-04-26T11:15:49.088Z,7.25
2023-04-26T11:18:19.841Z,7.22
2023-04-26T11:20:46.702Z,8.35
2023-04-26T11:23:13.398Z,7.55
2023-04-26T11:25:40.299Z,8.93
2023-04-26T11:28:06.988Z,7.07
2023-04-26T11:30:33.546Z,8.63
2023-04-26T11:33:01.535Z,9.23
2023-04-26T11:35:29.686Z,8.43
2023-04-26T11:38:02.260Z,7.90
2023-04-26T11:40:33.158Z,8.18
2023-04-26T11:43:06.618Z,8.57
2023-04-26T11:45:35.041Z,8.70
2023-04-26T11:48:07.750Z,7.72
2023-04-26T11:50:39.104Z,8.40
2023-04-26T11:53:08.045Z,7.68
2023-04-26T11:55:35.943Z,7.32
2023-04-26T11:58:11.478Z,8.73
2023-04-26T12:00:38.862Z,8.48
2023-04-26T12:03:10.254Z,9.15
2023-04-26T12:05:37.941Z,8.88
2023-04-26T12:08:04.787Z,8.65
2023-04-26T12:10:38.668Z,8.20
2023-04-26T12:13:05.310Z,8.77
2023-04-26T12:15:33.197Z,9.52
2023-04-26T12:18:11.345Z,7.70
2023-04-26T12:20:40.670Z,7.90
2023-04-26T12:23:10.070Z,9.90
2023-04-26T12:25:39.389Z,7.82
2023-04-26T12:28:12.422Z,7.75
2023-04-26T12:30:40.354Z,8.63
2023-04-26T12:33:16.230Z,7.53
2023-04-26T12:35:43.561Z,6.78
2023-04-26T12:38:10.418Z,7.10
2023-04-26T12:40:37.283Z,6.57
2023-04-26T12:43:04.040Z,6.45
2023-04-26T12:45:30.757Z,6.30
2023-04-26T12:47:57.371Z,6.53
2023-04-26T12:50:24.175Z,6.05
2023-04-26T12:52:50.753Z,5.72
2023-04-26T12:55:17.281Z,5.35
2023-04-26T12:57:45.550Z,6.28
2023-04-26T13:00:19.762Z,7.35
2023-04-26T13:02:46.771Z,7.05
2023-04-26T13:05:14.263Z,5.35
2023-04-26T13:07:43.493Z,6.90
2023-04-26T13:10:12.876Z,6.15
2023-04-26T13:12:40.181Z,6.95
2023-04-26T13:15:08.796Z,7.70
2023-04-26T13:17:37.412Z,7.03
2023-04-26T13:20:07.981Z,7.40
2023-04-26T13:22:34.659Z,7.50
2023-04-26T13:25:01.248Z,6.65
2023-04-26T13:27:30.517Z,7.15
2023-04-26T13:29:58.416Z,8.18
2023-04-26T13:32:25.129Z,6.97
2023-04-26T13:34:51.840Z,6.40
2023-04-26T13:37:21.384Z,8.13
2023-04-26T13:39:48.618Z,5.97
2023-04-26T13:42:16.366Z,8.18
2023-04-26T13:44:43.283Z,7.60
2023-04-26T13:47:10.056Z,6.97
2023-04-26T13:49:37.223Z,7.32
2023-04-26T13:52:03.811Z,9.70
2023-04-26T13:54:30.625Z,8.75
2023-04-26T13:56:58.282Z,9.88
2023-04-26T13:59:24.847Z,8.85
2023-04-26T14:01:54.252Z,8.13
2023-04-26T14:04:22.194Z,8.68
2023-04-26T14:06:48.835Z,8.00
2023-04-26T14:09:16.189Z,7.95
2023-04-26T14:11:42.842Z,9.13
2023-04-26T14:14:09.376Z,10.38
2023-04-26T14:16:36.063Z,28.55
2023-04-26T14:19:02.683Z,13.77
2023-04-26T14:21:29.204Z,10.35
2023-04-26T14:23:56.531Z,11.05
2023-04-26T14:26:25.998Z,10.02
2023-04-26T14:28:52.629Z,8.50
2023-04-26T14:31:19.916Z,8.05
2023-04-26T14:33:46.583Z,8.25
2023-04-26T14:36:13.218Z,10.52
2023-04-26T14:38:43.733Z,10.45
2023-04-26T14:41:18.022Z,10.68
2023-04-26T14:43:46.314Z,10.18
2023-04-26T14:46:13.455Z,11.85
2023-04-26T14:48:40.142Z,10.13
2023-04-26T14:51:06.812Z,9.45
2023-04-26T14:53:33.320Z,8.48
2023-04-26T14:56:00.709Z,9.27
2023-04-26T14:58:27.751Z,8.65
2023-04-26T15:00:54.383Z,9.55
2023-04-26T15:03:21.120Z,8.20
2023-04-26T15:05:47.941Z,8.43
2023-04-26T15:08:14.551Z,8.35
2023-04-26T15:10:41.089Z,9.13
2023-04-26T15:13:07.773Z,7.25
2023-04-26T15:15:34.321Z,7.55
2023-04-26T15:18:01.888Z,6.70
2023-04-26T15:20:28.589Z,7.70
2023-04-26T15:22:55.251Z,6.85
2023-04-26T15:25:21.838Z,7.15
2023-04-26T15:27:50.308Z,7.30
2023-04-26T15:30:17.245Z,6.88
2023-04-26T15:32:47.796Z,6.22
2023-04-26T15:35:15.421Z,6.43
2023-04-26T15:37:42.010Z,6.90
2023-04-26T15:40:10.524Z,6.55
2023-04-26T15:42:37.594Z,6.07
2023-04-26T15:45:04.364Z,6.45
2023-04-26T15:47:31.141Z,8.05
2023-04-26T15:50:03.550Z,6.63
2023-04-26T15:52:30.810Z,7.03
2023-04-26T15:54:57.382Z,7.38
2023-04-26T15:57:23.961Z,6.63
2023-04-26T15:59:51.127Z,7.07
2023-04-26T16:02:17.842Z,8.38
2023-04-26T16:04:44.708Z,8.60
2023-04-26T16:07:11.764Z,6.30
2023-04-26T16:09:38.421Z,6.85
2023-04-26T16:12:05.619Z,7.22
2023-04-26T16:14:35.040Z,8.88
2023-04-26T16:17:03.498Z,6.55
2023-04-26T16:19:30.068Z,7.88
2023-04-26T16:21:56.761Z,8.50
2023-04-26T16:24:24.367Z,6.95
2023-04-26T16:26:50.906Z,8.18
2023-04-26T16:29:17.733Z,7.78
2023-04-26T16:31:44.562Z,7.60
2023-04-26T16:34:11.452Z,7.72
2023-04-26T16:36:38.027Z,6.97
2023-04-26T16:39:04.553Z,8.27
2023-04-26T16:41:31.056Z,6.80
2023-04-26T16:43:57.645Z,7.85
2023-04-26T16:46:24.204Z,7.18
2023-04-26T16:48:51.032Z,7.45
2023-04-26T16:51:17.806Z,6.32
2023-04-26T16:53:44.312Z,9.13
2023-04-26T16:56:11.057Z,10.38
2023-04-26T16:58:37.805Z,8.57
2023-04-26T17:01:04.814Z,7.43
2023-04-26T17:03:31.832Z,7.32
2023-04-26T17:05:58.777Z,8.18
2023-04-26T17:08:25.918Z,7.40
2023-04-26T17:10:52.791Z,7.15
2023-04-26T17:13:19.907Z,9.30
2023-04-26T17:15:46.833Z,9.00
2023-04-26T17:18:13.756Z,10.30
2023-04-26T17:20:41.187Z,9.55
2023-04-26T17:23:08.679Z,6.95
2023-04-26T17:25:35.811Z,8.23
2023-04-26T17:28:02.421Z,9.63
2023-04-26T17:30:29.075Z,9.15
2023-04-26T17:32:56.003Z,7.65
2023-04-26T17:35:22.609Z,7.40
2023-04-26T17:37:50.460Z,10.43
2023-04-26T17:40:18.582Z,8.07
2023-04-26T17:42:46.240Z,9.52
2023-04-26T17:45:14.031Z,8.73
2023-04-26T17:47:45.468Z,8.80
2023-04-26T17:50:12.490Z,8.45
2023-04-26T17:52:39.081Z,8.15
2023-04-26T17:55:08.135Z,8.77
2023-04-26T17:57:34.723Z,8.90
2023-04-26T18:00:01.375Z,6.93
2023-04-26T18:02:28.221Z,9.18
2023-04-26T18:04:55.199Z,9.00
2023-04-26T18:07:21.997Z,8.35
2023-04-26T18:09:48.526Z,8.05
2023-04-26T18:12:15.439Z,9.25
2023-04-26T18:14:45.141Z,7.57
2023-04-26T18:17:15.370Z,7.95
2023-04-26T18:19:42.672Z,7.35
2023-04-26T18:22:09.403Z,7.63
2023-04-26T18:24:35.994Z,8.20
2023-04-26T18:27:03.194Z,7.47
2023-04-26T18:29:30.201Z,7.70
2023-04-26T18:31:56.825Z,8.27
2023-04-26T18:34:23.561Z,6.50
2023-04-26T18:36:50.123Z,7.10
2023-04-26T18:39:16.759Z,8.30
2023-04-26T18:41:43.457Z,7.30
2023-04-26T18:44:15.966Z,7.22
2023-04-26T18:46:43.137Z,6.75
2023-04-26T18:49:10.094Z,8.57
2023-04-26T18:51:36.724Z,7.05
2023-04-26T18:54:03.374Z,6.82
2023-04-26T18:56:30.094Z,7.35
2023-04-26T18:58:57.159Z,6.35
2023-04-26T19:01:24.123Z,6.80
2023-04-26T19:03:51.016Z,4.50
2023-04-26T19:06:17.702Z,3.72
2023-04-26T19:08:45.083Z,2.50
2023-04-26T19:11:12.411Z,3.72
2023-04-26T19:13:40.176Z,2.65
2023-04-26T19:16:07.766Z,3.45
2023-04-26T19:18:36.064Z,2.85
2023-04-26T19:21:04.112Z,2.60
2023-04-26T19:23:30.821Z,2.45
2023-04-26T19:26:13.804Z,2.03
2023-04-26T19:28:40.878Z,2.30
2023-04-26T19:31:07.459Z,2.70
2023-04-26T19:33:34.129Z,2.50
2023-04-26T19:36:00.816Z,2.58
2023-04-26T19:38:27.335Z,3.35
2023-04-26T19:40:54.179Z,2.78
2023-04-26T19:43:20.843Z,3.33
2023-04-26T19:45:47.689Z,3.17
2023-04-26T19:48:14.421Z,3.20
2023-04-26T19:50:42.323Z,2.22
2023-04-26T19:53:10.139Z,2.78
2023-04-26T19:55:38.048Z,2.67
2023-04-26T19:58:05.974Z,3.00
2023-04-26T20:00:38.571Z,2.50
2023-04-26T20:03:05.750Z,2.35
2023-04-26T20:05:33.507Z,2.30
2023-04-26T20:08:00.407Z,2.47
2023-04-26T20:10:30.420Z,2.28
2023-04-26T20:12:56.989Z,2.83
2023-04-26T20:15:24.220Z,2.47
2023-04-26T20:17:50.993Z,2.45
2023-04-26T20:20:17.603Z,1.83
2023-04-26T20:22:44.165Z,2.42
2023-04-26T20:25:10.992Z,2.15
2023-04-26T20:27:37.823Z,2.13
2023-04-26T20:30:04.848Z,1.63
2023-04-26T20:32:31.563Z,1.85
2023-04-26T20:34:58.321Z,1.42
2023-04-26T20:37:24.830Z,2.20
2023-04-26T20:39:51.431Z,1.90
2023-04-26T20:42:17.944Z,1.20
2023-04-26T20:44:44.465Z,1.83
2023-04-26T20:47:11.055Z,1.48
2023-04-26T20:49:37.571Z,2.17
2023-04-26T20:52:04.419Z,1.90
2023-04-26T20:54:31.836Z,1.55
2023-04-26T20:56:58.514Z,1.98
2023-04-26T20:59:25.970Z,1.92
2023-04-26T21:01:53.700Z,1.40
2023-04-26T21:04:20.752Z,1.55
2023-04-26T21:07:06.281Z,1.77
2023-04-26T21:09:32.857Z,1.98
2023-04-26T21:11:59.385Z,2.20
2023-04-26T21:14:26.256Z,1.88
2023-04-26T21:16:52.776Z,1.20
2023-04-26T21:19:19.677Z,1.63
2023-04-26T21:21:46.383Z,1.83
2023-04-26T21:24:13.169Z,1.73
2023-04-26T21:26:39.729Z,1.63
2023-04-26T21:29:07.882Z,1.55
2023-04-26T21:31:34.959Z,1.25
2023-04-26T21:34:01.559Z,1.50
2023-04-26T21:36:28.178Z,1.52
2023-04-26T21:38:54.732Z,1.50
2023-04-26T21:41:21.323Z,1.52
2023-04-26T21:43:47.933Z,1.75
2023-04-26T21:46:14.501Z,1.65
2023-04-26T21:48:41.081Z,1.95
2023-04-26T21:51:07.657Z,1.40
2023-04-26T21:53:34.221Z,1.35
2023-04-26T21:56:00.782Z,1.38
2023-04-26T21:58:27.504Z,1.50
2023-04-26T22:00:54.055Z,2.03
2023-04-26T22:03:21.856Z,1.48
2023-04-26T22:05:48.711Z,1.25
2023-04-26T22:08:15.468Z,1.88
2023-04-26T22:10:42.084Z,2.15
2023-04-26T22:13:08.725Z,2.33
2023-04-26T22:15:57.001Z,1.90
2023-04-26T22:18:23.609Z,1.70
2023-04-26T22:20:50.129Z,1.65
2023-04-26T22:23:16.778Z,1.67
2023-04-26T22:25:43.346Z,1.88
2023-04-26T22:28:09.892Z,1.58
2023-04-26T22:30:36.446Z,1.75
2023-04-26T22:33:03.315Z,2.28
2023-04-26T22:35:30.126Z,1.10
2023-04-26T22:37:56.805Z,1.60
2023-04-26T22:40:23.431Z,1.38
2023-04-26T22:42:49.930Z,2.05
2023-04-26T22:45:16.515Z,1.75
2023-04-26T22:47:43.078Z,2.03
2023-04-26T22:50:10.168Z,1.65
2023-04-26T22:52:38.225Z,1.63
2023-04-26T22:55:05.128Z,2.08
2023-04-26T22:57:31.883Z,1.88
2023-04-26T22:59:58.422Z,2.20
2023-04-26T23:02:25.137Z,1.58
2023-04-26T23:04:51.776Z,1.63
2023-04-26T23:07:18.330Z,1.92
2023-04-26T23:09:44.935Z,1.95
2023-04-26T23:12:11.604Z,1.38
2023-04-26T23:14:38.103Z,1.30
2023-04-26T23:17:05.734Z,1.33
2023-04-26T23:19:33.107Z,2.30
2023-04-26T23:21:59.805Z,2.20
2023-04-26T23:24:26.914Z,2.05
2023-04-26T23:26:53.620Z,2.33
2023-04-26T23:29:20.264Z,1.42
2023-04-26T23:31:46.890Z,1.83
2023-04-26T23:34:13.449Z,2.03
2023-04-26T23:36:39.946Z,1.88
2023-04-26T23:39:07.281Z,1.35
2023-04-26T23:41:33.794Z,1.77
2023-04-26T23:44:00.315Z,1.88
2023-04-26T23:46:27.022Z,2.28
2023-04-26T23:48:53.593Z,1.90
2023-04-26T23:51:20.120Z,2.38
2023-04-26T23:53:46.684Z,2.05
2023-04-26T23:56:13.296Z,1.50
2023-04-26T23:58:39.892Z,2.60
